createdAt,value
2022-11-05T00:01:14.199Z,7.75
2022-11-05T00:03:59.048Z,5.43
2022-11-05T00:06:43.874Z,4.82
2022-11-05T00:09:28.978Z,8.10
2022-11-05T00:12:24.914Z,5.35
2022-11-05T00:15:09.839Z,5.40
2022-11-05T00:17:36.490Z,7.07
2022-11-05T00:20:03.717Z,7.18
2022-11-05T00:22:48.976Z,6.95
2022-11-05T00:25:18.574Z,6.72
2022-11-05T00:27:52.727Z,7.07
2022-11-05T00:30:24.021Z,6.93
2022-11-05T00:32:51.319Z,8.13
2022-11-05T00:35:19.480Z,7.95
2022-11-05T00:37:50.033Z,6.18
2022-11-05T00:40:17.621Z,7.05
2022-11-05T00:43:02.902Z,6.43
2022-11-05T00:45:30.457Z,4.45
2022-11-05T00:48:15.524Z,7.70
2022-11-05T00:50:42.151Z,4.35
2022-11-05T00:53:09.090Z,5.97
2022-11-05T00:55:38.249Z,5.70
2022-11-05T00:58:09.473Z,5.32
2022-11-05T01:00:38.157Z,5.05
2022-11-05T01:03:10.401Z,5.15
2022-11-05T01:05:43.191Z,4.13
2022-11-05T01:08:10.545Z,4.25
2022-11-05T01:10:44.240Z,4.35
2022-11-05T01:13:13.202Z,3.78
2022-11-05T01:15:40.371Z,4.07
2022-11-05T01:18:06.936Z,4.10
2022-11-05T01:20:33.618Z,5.57
2022-11-05T01:23:00.260Z,6.18
2022-11-05T01:25:26.923Z,5.47
2022-11-05T01:27:53.478Z,6.50
2022-11-05T01:30:20.191Z,3.70
2022-11-05T01:32:46.744Z,5.30
2022-11-05T01:35:15.370Z,5.28
2022-11-05T01:37:41.936Z,5.93
2022-11-05T01:40:16.237Z,4.38
2022-11-05T01:42:43.124Z,6.47
2022-11-05T01:45:15.639Z,3.70
2022-11-05T01:48:11.398Z,2.85
2022-11-05T01:50:41.901Z,6.38
2022-11-05T01:53:10.725Z,3.47
2022-11-05T01:55:40.560Z,3.70
2022-11-05T01:58:07.854Z,5.05
2022-11-05T02:00:35.043Z,4.03
2022-11-05T02:03:01.749Z,4.47
2022-11-05T02:05:28.442Z,3.90
2022-11-05T02:07:55.005Z,3.58
2022-11-05T02:10:21.869Z,5.55
2022-11-05T02:12:48.614Z,3.88
2022-11-05T02:15:43.974Z,3.67
2022-11-05T02:18:36.451Z,2.75
2022-11-05T02:21:30.634Z,5.18
2022-11-05T02:24:19.594Z,4.78
2022-11-05T02:27:09.904Z,6.47
2022-11-05T02:30:00.857Z,3.60
2022-11-05T02:32:35.854Z,3.92
2022-11-05T02:35:21.285Z,3.42
2022-11-05T02:37:53.421Z,5.15
2022-11-05T02:40:28.913Z,5.63
2022-11-05T02:43:01.309Z,3.63
2022-11-05T02:45:49.171Z,3.90
2022-11-05T02:48:26.890Z,3.95
2022-11-05T02:51:15.383Z,4.60
2022-11-05T02:53:54.149Z,3.22
2022-11-05T02:56:34.982Z,4.88
2022-11-05T02:59:01.551Z,5.65
2022-11-05T03:01:28.254Z,3.25
2022-11-05T03:03:57.327Z,5.07
2022-11-05T03:06:51.402Z,2.85
2022-11-05T03:09:30.061Z,4.45
2022-11-05T03:12:15.205Z,4.13
2022-11-05T03:15:07.375Z,4.10
2022-11-05T03:17:39.164Z,3.88
2022-11-05T03:20:15.314Z,3.60
2022-11-05T03:22:51.594Z,6.30
2022-11-05T03:25:21.490Z,6.13
2022-11-05T03:27:48.624Z,4.90
2022-11-05T03:30:16.383Z,4.85
2022-11-05T03:32:46.674Z,7.15
2022-11-05T03:35:28.146Z,7.25
2022-11-05T03:37:57.540Z,4.70
2022-11-05T03:40:24.225Z,4.63
2022-11-05T03:42:52.680Z,6.28
2022-11-05T03:45:22.158Z,5.05
2022-11-05T03:47:49.013Z,5.30
2022-11-05T03:50:41.874Z,5.25
2022-11-05T03:53:17.533Z,5.50
2022-11-05T03:56:18.231Z,5.78
2022-11-05T03:58:45.107Z,6.53
2022-11-05T04:01:12.391Z,6.55
2022-11-05T04:03:39.047Z,6.28
2022-11-05T04:06:25.484Z,6.30
2022-11-05T04:09:10.584Z,5.78
2022-11-05T04:11:55.402Z,6.72
2022-11-05T04:14:22.044Z,7.15
2022-11-05T04:17:07.003Z,6.80
2022-11-05T04:19:56.114Z,7.75
2022-11-05T04:22:42.429Z,8.50
2022-11-05T04:25:09.329Z,8.80
2022-11-05T04:27:36.402Z,9.13
2022-11-05T04:30:19.132Z,9.45
2022-11-05T04:33:16.802Z,10.20
2022-11-05T04:35:45.237Z,10.75
2022-11-05T04:38:16.615Z,12.23
2022-11-05T04:40:43.752Z,13.52
2022-11-05T04:43:15.104Z,13.32
2022-11-05T04:45:42.297Z,11.50
2022-11-05T04:48:08.867Z,13.90
2022-11-05T04:50:35.576Z,11.75
2022-11-05T04:53:02.357Z,16.63
2022-11-05T04:55:28.930Z,12.27
2022-11-05T04:57:55.519Z,14.55
2022-11-05T05:00:23.222Z,15.82
2022-11-05T05:02:50.157Z,14.48
2022-11-05T05:05:16.866Z,15.68
2022-11-05T05:07:43.405Z,14.77
2022-11-05T05:10:10.636Z,15.15
2022-11-05T05:12:37.292Z,16.75
2022-11-05T05:15:04.431Z,15.88
2022-11-05T05:17:30.998Z,16.13
2022-11-05T05:20:30.318Z,18.25
2022-11-05T05:22:56.890Z,17.50
2022-11-05T05:25:23.589Z,18.85
2022-11-05T05:27:50.174Z,17.58
2022-11-05T05:30:17.025Z,19.27
2022-11-05T05:32:43.769Z,15.63
2022-11-05T05:35:10.483Z,19.13
2022-11-05T05:37:37.490Z,17.85
2022-11-05T05:40:04.588Z,17.50
2022-11-05T05:42:31.154Z,17.90
2022-11-05T05:44:57.782Z,20.40
2022-11-05T05:47:24.329Z,17.55
2022-11-05T05:49:51.590Z,21.08
2022-11-05T05:52:18.132Z,23.45
2022-11-05T05:54:44.733Z,19.40
2022-11-05T05:57:11.285Z,20.35
2022-11-05T05:59:37.885Z,22.00
2022-11-05T06:02:04.619Z,19.67
2022-11-05T06:04:31.361Z,23.90
2022-11-05T06:06:57.909Z,23.70
2022-11-05T06:09:24.923Z,25.02
2022-11-05T06:11:51.489Z,25.58
2022-11-05T06:14:18.114Z,26.30
2022-11-05T06:16:44.728Z,24.83
2022-11-05T06:19:11.282Z,28.90
2022-11-05T06:21:37.974Z,26.50
2022-11-05T06:24:04.677Z,26.95
2022-11-05T06:26:31.431Z,24.63
2022-11-05T06:28:58.038Z,27.80
2022-11-05T06:31:24.651Z,29.58
2022-11-05T06:33:51.241Z,29.17
2022-11-05T06:36:18.696Z,27.45
2022-11-05T06:38:45.520Z,29.23
2022-11-05T06:41:12.127Z,26.67
2022-11-05T06:43:38.969Z,30.58
2022-11-05T06:46:05.861Z,28.63
2022-11-05T06:48:32.631Z,25.58
2022-11-05T06:50:59.240Z,28.40
2022-11-05T06:53:26.111Z,27.88
2022-11-05T06:55:52.657Z,28.73
2022-11-05T06:58:19.288Z,32.30
2022-11-05T07:00:46.066Z,28.85
2022-11-05T07:03:13.495Z,35.60
2022-11-05T07:05:43.170Z,30.27
2022-11-05T07:08:09.711Z,33.55
2022-11-05T07:10:36.315Z,32.00
2022-11-05T07:13:08.509Z,33.33
2022-11-05T07:15:36.093Z,33.33
2022-11-05T07:18:02.790Z,32.60
2022-11-05T07:20:33.952Z,29.15
2022-11-05T07:23:05.421Z,31.42
2022-11-05T07:25:32.816Z,28.10
2022-11-05T07:27:59.636Z,27.65
2022-11-05T07:30:26.567Z,28.33
2022-11-05T07:32:53.242Z,27.88
2022-11-05T07:35:19.862Z,23.40
2022-11-05T07:37:47.769Z,30.08
2022-11-05T07:40:15.252Z,25.88
2022-11-05T07:42:43.466Z,27.10
2022-11-05T07:45:10.586Z,29.27
2022-11-05T07:47:45.532Z,25.25
2022-11-05T07:50:12.123Z,24.38
2022-11-05T07:52:38.686Z,27.05
2022-11-05T07:55:06.135Z,22.55
2022-11-05T07:57:32.703Z,28.30
2022-11-05T07:59:59.348Z,25.98
2022-11-05T08:02:26.242Z,28.95
2022-11-05T08:04:52.942Z,23.13
2022-11-05T08:07:19.562Z,25.35
2022-11-05T08:09:46.304Z,27.35
2022-11-05T08:12:12.838Z,24.48
2022-11-05T08:14:39.543Z,24.13
2022-11-05T08:17:06.261Z,20.65
2022-11-05T08:19:32.855Z,26.17
2022-11-05T08:21:59.410Z,22.70
2022-11-05T08:24:26.034Z,22.13
2022-11-05T08:26:53.256Z,22.75
2022-11-05T08:29:19.881Z,26.13
2022-11-05T08:31:46.453Z,21.63
2022-11-05T08:34:13.052Z,21.58
2022-11-05T08:36:43.223Z,21.73
2022-11-05T08:39:14.268Z,17.33
2022-11-05T08:41:43.312Z,17.73
2022-11-05T08:44:09.995Z,20.75
2022-11-05T08:46:41.407Z,19.05
2022-11-05T08:49:08.394Z,14.02
2022-11-05T08:51:35.138Z,12.38
2022-11-05T08:54:01.783Z,13.55
2022-11-05T08:56:28.345Z,14.88
2022-11-05T08:58:54.961Z,11.00
2022-11-05T09:01:36.120Z,10.52
2022-11-05T09:04:03.271Z,14.27
2022-11-05T09:06:29.902Z,10.98
2022-11-05T09:08:56.730Z,10.75
2022-11-05T09:11:37.594Z,11.90
2022-11-05T09:14:10.582Z,11.13
2022-11-05T09:16:37.273Z,11.70
2022-11-05T09:19:06.758Z,10.05
2022-11-05T09:21:34.741Z,11.15
2022-11-05T09:24:01.326Z,10.63
2022-11-05T09:26:27.983Z,8.57
2022-11-05T09:28:54.638Z,8.75
2022-11-05T09:31:21.187Z,10.35
2022-11-05T09:33:47.782Z,10.63
2022-11-05T09:36:14.461Z,12.48
2022-11-05T09:38:41.097Z,10.18
2022-11-05T09:41:27.573Z,15.48
2022-11-05T09:43:59.566Z,14.82
2022-11-05T09:46:28.934Z,12.88
2022-11-05T09:49:02.230Z,15.75
2022-11-05T09:51:29.212Z,14.00
2022-11-05T09:53:56.395Z,15.23
2022-11-05T09:56:26.332Z,13.93
2022-11-05T09:59:12.889Z,16.65
2022-11-05T10:01:39.557Z,12.60
2022-11-05T10:04:08.253Z,12.85
2022-11-05T10:06:34.910Z,10.65
2022-11-05T10:09:13.013Z,13.32
2022-11-05T10:11:46.215Z,13.73
2022-11-05T10:14:19.875Z,12.32
2022-11-05T10:16:50.345Z,12.65
2022-11-05T10:19:25.965Z,10.70
2022-11-05T10:22:08.639Z,11.30
2022-11-05T10:24:35.507Z,11.63
2022-11-05T10:27:02.299Z,12.77
2022-11-05T10:29:30.418Z,13.30
2022-11-05T10:31:57.994Z,15.13
2022-11-05T10:34:28.053Z,14.90
2022-11-05T10:36:54.656Z,13.13
2022-11-05T10:39:21.663Z,14.02
2022-11-05T10:42:09.852Z,17.50
2022-11-05T10:44:48.607Z,21.92
2022-11-05T10:47:53.032Z,17.05
2022-11-05T10:50:24.667Z,14.95
2022-11-05T10:53:01.688Z,16.48
2022-11-05T10:55:30.598Z,12.45
2022-11-05T10:58:15.586Z,16.08
2022-11-05T11:01:02.760Z,14.02
2022-11-05T11:03:34.205Z,11.23
2022-11-05T11:06:02.153Z,12.68
2022-11-05T11:08:29.713Z,12.63
2022-11-05T11:11:02.677Z,12.40
2022-11-05T11:13:48.097Z,16.02
2022-11-05T11:16:16.843Z,14.50
2022-11-05T11:18:44.046Z,13.20
2022-11-05T11:21:19.802Z,13.10
2022-11-05T11:24:09.477Z,14.80
2022-11-05T11:26:37.733Z,14.85
2022-11-05T11:29:25.640Z,14.32
2022-11-05T11:31:59.121Z,16.98
2022-11-05T11:34:30.798Z,12.43
2022-11-05T11:37:28.282Z,15.13
2022-11-05T11:40:03.661Z,19.88
2022-11-05T11:42:34.081Z,12.88
2022-11-05T11:45:22.441Z,16.85
2022-11-05T11:47:50.989Z,13.45
2022-11-05T11:50:40.954Z,13.85
2022-11-05T11:53:18.199Z,14.38
2022-11-05T11:56:16.857Z,11.07
2022-11-05T11:58:46.542Z,13.35
2022-11-05T12:01:22.332Z,13.40
2022-11-05T12:04:24.400Z,13.63
2022-11-05T12:07:03.003Z,10.57
2022-11-05T12:10:05.398Z,12.13
2022-11-05T12:12:51.315Z,9.80
2022-11-05T12:15:26.803Z,10.98
2022-11-05T12:18:07.634Z,12.00
2022-11-05T12:20:36.358Z,8.60
2022-11-05T12:23:41.371Z,9.82
2022-11-05T12:26:12.102Z,9.38
2022-11-05T12:29:19.819Z,14.45
2022-11-05T12:31:56.916Z,18.33
2022-11-05T12:34:23.627Z,11.80
2022-11-05T12:37:20.314Z,9.70
2022-11-05T12:40:12.650Z,9.48
2022-11-05T12:42:57.203Z,8.88
2022-11-05T12:46:05.733Z,14.00
2022-11-05T12:48:53.611Z,10.13
2022-11-05T12:51:35.644Z,11.52
2022-11-05T12:54:25.297Z,11.93
2022-11-05T12:56:54.270Z,6.43
2022-11-05T12:59:51.334Z,6.55
2022-11-05T13:02:35.126Z,8.65
2022-11-05T13:05:04.929Z,8.13
2022-11-05T13:07:37.753Z,8.55
2022-11-05T13:10:13.396Z,7.38
2022-11-05T13:12:40.288Z,8.00
2022-11-05T13:15:21.215Z,6.35
2022-11-05T13:17:52.221Z,7.35
2022-11-05T13:20:24.564Z,7.78
2022-11-05T13:22:55.640Z,6.65
2022-11-05T13:25:29.041Z,7.63
2022-11-05T13:28:01.642Z,6.22
2022-11-05T13:30:41.593Z,6.55
2022-11-05T13:33:52.831Z,7.72
2022-11-05T13:36:43.219Z,8.60
2022-11-05T13:39:18.374Z,13.50
2022-11-05T13:42:00.187Z,16.42
2022-11-05T13:44:48.493Z,14.20
2022-11-05T13:47:39.551Z,12.27
2022-11-05T13:50:15.183Z,11.43
2022-11-05T13:53:01.932Z,6.88
2022-11-05T13:55:42.768Z,8.23
2022-11-05T13:58:15.303Z,7.72
2022-11-05T14:00:55.073Z,9.60
2022-11-05T14:03:21.705Z,9.68
2022-11-05T14:06:04.902Z,9.40
2022-11-05T14:08:36.255Z,9.63
2022-11-05T14:11:05.409Z,8.10
2022-11-05T14:13:42.697Z,7.60
2022-11-05T14:16:21.604Z,5.32
2022-11-05T14:18:56.343Z,6.40
2022-11-05T14:21:26.065Z,5.90
2022-11-05T14:24:19.605Z,9.48
2022-11-05T14:29:23.253Z,4.57
2022-11-05T14:32:09.346Z,5.55
2022-11-05T14:34:50.733Z,8.63
2022-11-05T14:37:27.322Z,6.57
2022-11-05T14:39:54.909Z,7.68
2022-11-05T14:42:30.942Z,7.68
2022-11-05T14:45:22.549Z,9.70
2022-11-05T14:48:03.489Z,8.10
2022-11-05T14:50:40.879Z,7.32
2022-11-05T14:53:25.253Z,7.90
2022-11-05T14:56:04.439Z,7.75
2022-11-05T14:58:33.701Z,9.07
2022-11-05T15:01:01.056Z,9.45
2022-11-05T15:03:33.760Z,9.15
2022-11-05T15:06:05.221Z,10.88
2022-11-05T15:08:46.857Z,6.80
2022-11-05T15:11:32.907Z,9.88
2022-11-05T15:14:06.806Z,9.07
2022-11-05T15:16:42.800Z,14.18
2022-11-05T15:19:37.387Z,12.65
2022-11-05T15:22:32.393Z,10.00
2022-11-05T15:24:59.204Z,10.60
2022-11-05T15:27:40.972Z,12.73
2022-11-05T15:30:31.202Z,10.50
2022-11-05T15:33:30.513Z,8.15
2022-11-05T15:36:08.074Z,8.75
2022-11-05T15:38:35.250Z,9.43
2022-11-05T15:41:18.364Z,9.93
2022-11-05T15:43:48.116Z,10.80
2022-11-05T15:46:19.919Z,11.38
2022-11-05T15:49:17.930Z,13.48
2022-11-05T15:51:45.954Z,9.13
2022-11-05T15:54:35.448Z,8.98
2022-11-05T15:57:02.216Z,9.10
2022-11-05T15:59:29.773Z,8.70
2022-11-05T16:02:13.925Z,7.30
2022-11-05T16:04:40.627Z,9.18
2022-11-05T16:07:10.486Z,8.60
2022-11-05T16:09:40.553Z,13.50
2022-11-05T16:12:24.166Z,10.13
2022-11-05T16:15:10.667Z,7.07
2022-11-05T16:17:40.002Z,6.38
2022-11-05T16:20:30.876Z,10.80
2022-11-05T16:23:00.412Z,9.55
2022-11-05T16:25:38.170Z,8.00
2022-11-05T16:28:07.209Z,9.02
2022-11-05T16:30:33.915Z,9.50
2022-11-05T16:33:07.449Z,5.78
2022-11-05T16:35:34.078Z,5.78
2022-11-05T16:38:01.662Z,7.43
2022-11-05T16:40:29.447Z,6.55
2022-11-05T16:43:21.586Z,7.90
2022-11-05T16:45:49.618Z,9.55
2022-11-05T16:48:16.772Z,9.77
2022-11-05T16:50:43.500Z,9.65
2022-11-05T16:53:10.477Z,9.30
2022-11-05T16:55:38.924Z,9.82
2022-11-05T16:58:06.657Z,6.78
2022-11-05T17:00:33.600Z,8.15
2022-11-05T17:03:00.723Z,9.35
2022-11-05T17:05:30.247Z,7.57
2022-11-05T17:07:58.204Z,8.32
2022-11-05T17:10:26.177Z,8.35
2022-11-05T17:12:55.109Z,8.88
2022-11-05T17:15:30.954Z,21.17
2022-11-05T17:17:58.609Z,14.20
2022-11-05T17:20:28.114Z,17.85
2022-11-05T17:22:55.431Z,20.33
2022-11-05T17:25:22.533Z,21.48
2022-11-05T17:27:49.282Z,16.25
2022-11-05T17:30:16.063Z,18.88
2022-11-05T17:32:43.103Z,20.20
2022-11-05T17:35:10.636Z,17.83
2022-11-05T17:38:25.071Z,16.55
2022-11-05T17:40:26.175Z,18.83
2022-11-05T17:42:53.528Z,19.35
2022-11-05T17:45:20.805Z,19.25
2022-11-05T17:47:47.754Z,21.00
2022-11-05T17:50:15.917Z,21.90
2022-11-05T17:52:45.181Z,20.13
2022-11-05T17:55:18.964Z,19.90
2022-11-05T17:57:52.208Z,19.58
2022-11-05T18:00:23.821Z,17.60
2022-11-05T18:02:53.310Z,23.80
2022-11-05T18:05:21.881Z,23.80
2022-11-05T18:07:49.609Z,19.52
2022-11-05T18:10:17.095Z,25.90
2022-11-05T18:12:44.579Z,21.15
2022-11-05T18:15:11.870Z,16.83
2022-11-05T18:17:40.060Z,22.20
2022-11-05T18:20:12.965Z,30.23
2022-11-05T18:22:44.528Z,26.88
2022-11-05T18:25:12.299Z,26.55
2022-11-05T18:27:40.307Z,22.85
2022-11-05T18:30:07.842Z,29.85
2022-11-05T18:32:34.778Z,28.02
2022-11-05T18:35:01.831Z,29.52
2022-11-05T18:37:28.839Z,30.23
2022-11-05T18:39:55.448Z,27.48
2022-11-05T18:42:22.041Z,31.80
2022-11-05T18:44:48.675Z,22.80
2022-11-05T18:47:15.380Z,27.33
2022-11-05T18:49:42.045Z,21.60
2022-11-05T18:52:09.005Z,24.52
2022-11-05T18:54:35.615Z,21.80
2022-11-05T18:57:02.573Z,25.23
2022-11-05T18:59:39.052Z,30.40
2022-11-05T19:02:07.023Z,36.83
2022-11-05T19:04:35.676Z,45.28
2022-11-05T19:07:05.213Z,39.65
2022-11-05T19:09:36.838Z,35.38
2022-11-05T19:12:04.138Z,39.33
2022-11-05T19:14:30.842Z,32.30
2022-11-05T19:16:58.058Z,28.83
2022-11-05T19:19:24.729Z,27.88
2022-11-05T19:21:51.362Z,27.83
2022-11-05T19:24:17.926Z,25.35
2022-11-05T19:26:44.756Z,23.75
2022-11-05T19:29:11.328Z,27.75
2022-11-05T19:31:38.393Z,22.95
2022-11-05T19:34:05.605Z,24.10
2022-11-05T19:36:32.883Z,24.83
2022-11-05T19:39:04.663Z,22.27
2022-11-05T19:41:31.264Z,25.55
2022-11-05T19:43:58.813Z,21.90
2022-11-05T19:46:25.619Z,25.25
2022-11-05T19:48:52.353Z,26.15
2022-11-05T19:51:26.423Z,23.80
2022-11-05T19:53:53.784Z,22.60
2022-11-05T19:56:21.537Z,22.88
2022-11-05T19:58:48.991Z,20.52
2022-11-05T20:01:16.550Z,23.85
2022-11-05T20:03:43.370Z,20.23
2022-11-05T20:06:12.479Z,21.25
2022-11-05T20:08:59.848Z,20.08
2022-11-05T20:11:26.960Z,22.15
2022-11-05T20:13:53.519Z,18.98
2022-11-05T20:16:25.463Z,17.65
2022-11-05T20:18:52.149Z,19.33
2022-11-05T20:21:18.944Z,20.35
2022-11-05T20:23:45.647Z,18.75
2022-11-05T20:26:12.665Z,18.15
2022-11-05T20:28:39.617Z,18.88
2022-11-05T20:31:11.597Z,18.58
2022-11-05T20:33:38.667Z,19.63
2022-11-05T20:36:19.313Z,26.13
2022-11-05T20:38:55.302Z,22.48
2022-11-05T20:41:22.220Z,20.95
2022-11-05T20:43:48.983Z,21.25
2022-11-05T20:46:17.874Z,19.80
2022-11-05T20:48:44.899Z,15.65
2022-11-05T20:51:19.435Z,21.02
2022-11-05T20:53:46.459Z,17.73
2022-11-05T20:56:21.700Z,23.40
2022-11-05T20:58:48.784Z,21.20
2022-11-05T21:01:16.766Z,23.10
2022-11-05T21:03:44.604Z,17.80
2022-11-05T21:06:11.655Z,21.60
2022-11-05T21:08:38.237Z,17.83
2022-11-05T21:11:04.991Z,23.23
2022-11-05T21:13:31.656Z,23.65
2022-11-05T21:15:59.950Z,17.30
2022-11-05T21:18:29.272Z,18.58
2022-11-05T21:20:56.288Z,18.48
2022-11-05T21:23:23.329Z,21.42
2022-11-05T21:25:49.887Z,21.80
2022-11-05T21:28:16.715Z,18.30
2022-11-05T21:30:49.123Z,20.38
2022-11-05T21:33:16.880Z,22.15
2022-11-05T21:35:45.157Z,21.70
2022-11-05T21:38:13.412Z,25.48
2022-11-05T21:40:40.533Z,25.92
2022-11-05T21:43:07.614Z,25.40
2022-11-05T21:45:34.310Z,27.90
2022-11-05T21:48:00.890Z,24.63
2022-11-05T21:50:45.959Z,24.60
2022-11-05T21:53:34.408Z,24.55
2022-11-05T21:56:23.278Z,25.58
2022-11-05T21:59:08.436Z,29.85
2022-11-05T22:01:35.134Z,26.20
2022-11-05T22:04:03.303Z,24.80
2022-11-05T22:06:32.869Z,24.60
2022-11-05T22:08:59.543Z,23.33
2022-11-05T22:11:26.116Z,29.50
2022-11-05T22:13:53.602Z,28.60
2022-11-05T22:16:20.274Z,24.80
2022-11-05T22:18:46.880Z,28.50
2022-11-05T22:21:19.619Z,30.30
2022-11-05T22:23:46.210Z,26.27
2022-11-05T22:26:12.852Z,26.58
2022-11-05T22:28:40.358Z,31.30
2022-11-05T22:31:14.129Z,30.17
2022-11-05T22:33:40.742Z,26.10
2022-11-05T22:36:07.743Z,27.83
2022-11-05T22:38:34.523Z,29.83
2022-11-05T22:41:08.236Z,23.98
2022-11-05T22:43:35.104Z,24.70
2022-11-05T22:46:05.959Z,23.25
2022-11-05T22:48:33.025Z,23.55
2022-11-05T22:51:06.969Z,23.23
2022-11-05T22:53:34.774Z,25.17
2022-11-05T22:56:06.050Z,20.83
2022-11-05T22:58:32.710Z,23.02
2022-11-05T23:00:59.604Z,26.15
2022-11-05T23:03:29.543Z,25.17
2022-11-05T23:05:57.717Z,24.08
2022-11-05T23:08:43.085Z,25.00
2022-11-05T23:11:47.207Z,23.65
2022-11-05T23:14:14.053Z,23.20
2022-11-05T23:16:59.797Z,25.05
2022-11-05T23:19:45.078Z,29.65
2022-11-05T23:22:31.416Z,22.88
2022-11-05T23:24:58.190Z,24.17
2022-11-05T23:27:24.802Z,24.95
2022-11-05T23:29:51.348Z,28.85
2022-11-05T23:32:28.220Z,23.58
2022-11-05T23:34:56.614Z,25.17
2022-11-05T23:37:44.625Z,26.85
2022-11-05T23:40:15.509Z,23.52
2022-11-05T23:43:03.987Z,21.10
2022-11-05T23:45:51.842Z,22.75
2022-11-05T23:48:25.278Z,20.90
2022-11-05T23:51:02.273Z,21.20
2022-11-05T23:53:29.943Z,23.10
2022-11-05T23:56:12.253Z,24.00
2022-11-05T23:58:39.535Z,23.63
